createdAt,value
2019-05-01T00:02:34.197Z,2.43
2019-05-01T00:05:17.659Z,2.50
2019-05-01T00:07:47.011Z,2.30
2019-05-01T00:10:16.803Z,2.40
2019-05-01T00:12:46.344Z,2.40
2019-05-01T00:15:15.686Z,2.30
2019-05-01T00:17:46.657Z,2.20
2019-05-01T00:20:16.264Z,1.97
2019-05-01T00:22:45.604Z,2.67
2019-05-01T00:25:14.930Z,2.33
2019-05-01T00:27:44.290Z,2.50
2019-05-01T00:30:28.831Z,3.03
2019-05-01T00:32:47.715Z,2.27
2019-05-01T00:35:17.475Z,2.00
2019-05-01T00:37:46.809Z,2.50
2019-05-01T00:40:16.129Z,2.50
2019-05-01T00:42:45.499Z,2.27
2019-05-01T00:45:15.251Z,2.30
2019-05-01T00:47:44.574Z,2.53
2019-05-01T00:50:13.901Z,2.60
2019-05-01T00:52:43.210Z,2.50
2019-05-01T00:55:30.375Z,2.63
2019-05-01T00:58:07.541Z,2.40
2019-05-01T01:00:44.602Z,2.93
2019-05-01T01:03:13.931Z,2.50
2019-05-01T01:05:43.294Z,2.57
2019-05-01T01:08:12.606Z,2.30
2019-05-01T01:10:41.923Z,2.50
2019-05-01T01:13:11.283Z,2.70
2019-05-01T01:15:40.618Z,2.17
2019-05-01T01:18:09.948Z,2.10
2019-05-01T01:20:39.289Z,2.03
2019-05-01T01:23:08.607Z,2.17
2019-05-01T01:25:38.020Z,2.27
2019-05-01T01:28:07.397Z,2.37
2019-05-01T01:30:37.041Z,2.70
2019-05-01T01:33:06.564Z,2.37
2019-05-01T01:35:35.874Z,2.30
2019-05-01T01:38:05.205Z,2.33
2019-05-01T01:40:35.978Z,2.20
2019-05-01T01:43:24.065Z,2.30
2019-05-01T01:45:54.830Z,2.20
2019-05-01T01:48:24.144Z,2.20
2019-05-01T01:50:53.482Z,2.07
2019-05-01T01:53:23.714Z,1.27
2019-05-01T01:55:54.346Z,1.10
2019-05-01T01:58:25.468Z,0.90
2019-05-01T02:01:09.546Z,0.90
2019-05-01T02:03:40.837Z,0.90
2019-05-01T02:06:10.156Z,0.87
2019-05-01T02:08:39.714Z,1.00
2019-05-01T02:11:09.135Z,1.10
2019-05-01T02:13:38.787Z,0.80
2019-05-01T02:16:08.119Z,0.90
2019-05-01T02:18:37.538Z,0.80
2019-05-01T02:21:06.888Z,1.00
2019-05-01T02:23:36.233Z,1.10
2019-05-01T02:26:06.690Z,1.13
2019-05-01T02:28:45.319Z,0.97
2019-05-01T02:31:28.101Z,1.03
2019-05-01T02:33:56.802Z,1.17
2019-05-01T02:36:28.080Z,1.10
2019-05-01T02:38:58.646Z,1.00
2019-05-01T02:41:31.643Z,1.10
2019-05-01T02:44:07.588Z,1.20
2019-05-01T02:46:37.869Z,1.17
2019-05-01T02:49:15.398Z,1.20
2019-05-01T02:51:46.030Z,1.20
2019-05-01T02:54:18.530Z,1.10
2019-05-01T02:56:55.471Z,1.10
2019-05-01T02:59:28.189Z,1.20
2019-05-01T03:01:58.234Z,1.37
2019-05-01T03:04:28.001Z,1.20
2019-05-01T03:06:57.626Z,1.20
2019-05-01T03:09:27.480Z,1.27
2019-05-01T03:11:58.335Z,1.40
2019-05-01T03:14:30.645Z,1.33
2019-05-01T03:17:29.013Z,1.40
2019-05-01T03:20:09.369Z,1.53
2019-05-01T03:23:07.153Z,1.40
2019-05-01T03:25:36.727Z,1.30
2019-05-01T03:28:06.517Z,1.40
2019-05-01T03:30:36.152Z,1.30
2019-05-01T03:33:06.323Z,1.40
2019-05-01T03:35:35.848Z,1.30
2019-05-01T03:38:05.185Z,1.40
2019-05-01T03:40:34.822Z,1.40
2019-05-01T03:43:04.368Z,1.50
2019-05-01T03:45:34.412Z,1.40
2019-05-01T03:48:04.967Z,1.40
2019-05-01T03:50:34.578Z,1.50
2019-05-01T03:53:04.006Z,1.50
2019-05-01T03:55:33.456Z,2.33
2019-05-01T03:58:03.333Z,1.67
2019-05-01T04:00:50.014Z,1.90
2019-05-01T04:03:29.438Z,1.30
2019-05-01T04:05:59.201Z,1.50
2019-05-01T04:08:29.240Z,1.50
2019-05-01T04:10:58.690Z,1.30
2019-05-01T04:13:28.124Z,1.50
2019-05-01T04:15:57.754Z,1.60
2019-05-01T04:18:28.339Z,1.47
2019-05-01T04:20:58.527Z,1.40
2019-05-01T04:23:27.937Z,1.77
2019-05-01T04:25:57.664Z,1.50
2019-05-01T04:28:48.921Z,1.57
2019-05-01T04:31:53.045Z,1.43
2019-05-01T04:34:29.209Z,1.63
2019-05-01T04:37:01.013Z,1.67
2019-05-01T04:39:30.456Z,1.60
2019-05-01T04:41:59.868Z,1.80
2019-05-01T04:44:29.424Z,1.47
2019-05-01T04:46:59.441Z,1.40
2019-05-01T04:49:29.361Z,1.80
2019-05-01T04:51:58.885Z,1.70
2019-05-01T04:54:28.514Z,1.63
2019-05-01T04:56:58.062Z,1.70
2019-05-01T04:59:27.548Z,1.60
2019-05-01T05:02:02.697Z,1.47
2019-05-01T05:04:32.347Z,1.73
2019-05-01T05:07:02.862Z,2.90
2019-05-01T05:09:57.459Z,1.73
2019-05-01T05:12:39.889Z,1.70
2019-05-01T05:15:22.944Z,2.20
2019-05-01T05:17:52.775Z,2.00
2019-05-01T05:20:22.130Z,1.90
2019-05-01T05:22:51.874Z,1.80
2019-05-01T05:25:21.389Z,1.80
2019-05-01T05:27:51.718Z,1.70
2019-05-01T05:30:22.121Z,1.93
2019-05-01T05:32:53.080Z,1.70
2019-05-01T05:35:24.817Z,1.77
2019-05-01T05:38:09.298Z,2.87
2019-05-01T05:40:40.233Z,1.90
2019-05-01T05:43:10.217Z,1.83
2019-05-01T05:45:40.073Z,2.07
2019-05-01T05:48:09.997Z,2.00
2019-05-01T05:50:50.818Z,1.70
2019-05-01T05:53:24.746Z,1.80
2019-05-01T05:55:57.159Z,2.53
2019-05-01T05:58:33.674Z,1.60
2019-05-01T06:01:19.364Z,1.60
2019-05-01T06:04:25.855Z,1.77
2019-05-01T06:07:23.961Z,2.30
2019-05-01T06:10:18.536Z,1.97
2019-05-01T06:13:12.134Z,1.63
2019-05-01T06:15:54.380Z,1.67
2019-05-01T06:18:34.871Z,1.70
2019-05-01T06:21:21.032Z,1.83
2019-05-01T06:24:08.297Z,1.70
2019-05-01T06:26:39.522Z,1.83
2019-05-01T06:29:08.978Z,1.63
2019-05-01T06:31:38.448Z,2.00
2019-05-01T06:34:07.794Z,1.90
2019-05-01T06:36:37.275Z,1.70
2019-05-01T06:39:11.845Z,1.60
2019-05-01T06:41:43.977Z,1.60
2019-05-01T06:44:39.231Z,1.50
2019-05-01T06:47:19.778Z,1.50
2019-05-01T06:50:06.017Z,1.57
2019-05-01T06:52:35.821Z,1.53
2019-05-01T06:55:05.373Z,1.40
2019-05-01T06:57:38.501Z,1.73
2019-05-01T07:00:09.430Z,2.00
2019-05-01T07:02:39.228Z,1.50
2019-05-01T07:05:14.422Z,1.80
2019-05-01T07:07:43.128Z,1.60
2019-05-01T07:10:11.876Z,1.80
2019-05-01T07:12:41.939Z,1.57
2019-05-01T07:15:11.352Z,1.70
2019-05-01T07:17:43.833Z,1.30
2019-05-01T07:20:47.336Z,1.60
2019-05-01T07:23:19.691Z,1.70
2019-05-01T07:25:52.522Z,1.50
2019-05-01T07:28:22.770Z,2.70
2019-05-01T07:31:01.023Z,1.83
2019-05-01T07:33:30.831Z,1.30
2019-05-01T07:36:06.934Z,1.57
2019-05-01T07:38:38.810Z,3.30
2019-05-01T07:41:08.887Z,2.80
2019-05-01T07:43:55.047Z,2.20
2019-05-01T07:46:35.029Z,1.70
2019-05-01T07:49:04.704Z,1.40
2019-05-01T07:51:37.844Z,1.60
2019-05-01T07:54:08.890Z,1.50
2019-05-01T07:56:37.212Z,1.45
2019-05-01T07:59:06.824Z,1.32
2019-05-01T08:02:04.254Z,1.82
2019-05-01T08:04:36.879Z,2.20
2019-05-01T08:07:04.963Z,1.72
2019-05-01T08:09:34.472Z,1.50
2019-05-01T08:12:03.915Z,2.10
2019-05-01T08:14:33.323Z,1.70
2019-05-01T08:17:02.806Z,1.80
2019-05-01T08:19:53.844Z,1.57
2019-05-01T08:22:25.611Z,1.45
2019-05-01T08:24:58.807Z,1.57
2019-05-01T08:27:44.437Z,2.00
2019-05-01T08:30:33.622Z,1.62
2019-05-01T08:33:27.713Z,1.50
2019-05-01T08:35:57.071Z,1.40
2019-05-01T08:38:29.854Z,1.57
2019-05-01T08:40:57.525Z,1.10
2019-05-01T08:43:26.895Z,1.20
2019-05-01T08:46:16.436Z,1.40
2019-05-01T08:48:56.300Z,1.30
2019-05-01T08:51:30.132Z,1.40
2019-05-01T08:53:57.764Z,2.57
2019-05-01T08:56:28.285Z,1.63
2019-05-01T08:58:57.639Z,1.50
2019-05-01T09:01:27.920Z,1.50
2019-05-01T09:03:57.575Z,1.43
2019-05-01T09:06:34.473Z,1.40
2019-05-01T09:08:58.012Z,1.20
2019-05-01T09:11:27.373Z,1.43
2019-05-01T09:13:58.980Z,2.23
2019-05-01T09:16:28.307Z,1.97
2019-05-01T09:18:59.069Z,1.53
2019-05-01T09:21:28.451Z,1.60
2019-05-01T09:23:57.804Z,2.00
2019-05-01T09:26:52.351Z,1.60
2019-05-01T09:29:26.696Z,1.80
2019-05-01T09:31:56.079Z,2.00
2019-05-01T09:34:25.772Z,1.80
2019-05-01T09:36:57.536Z,1.57
2019-05-01T09:39:27.898Z,1.77
2019-05-01T09:41:57.740Z,1.80
2019-05-01T09:44:27.153Z,1.50
2019-05-01T09:46:56.525Z,2.83
2019-05-01T09:49:25.951Z,1.87
2019-05-01T09:52:26.374Z,1.70
2019-05-01T09:55:04.245Z,1.37
2019-05-01T09:57:36.398Z,1.45
2019-05-01T10:00:07.050Z,1.60
2019-05-01T10:02:37.540Z,1.70
2019-05-01T10:05:07.979Z,1.82
2019-05-01T10:07:37.408Z,1.72
2019-05-01T10:10:07.980Z,1.57
2019-05-01T10:12:37.349Z,1.82
2019-05-01T10:15:06.799Z,1.52
2019-05-01T10:17:36.150Z,1.77
2019-05-01T10:20:05.687Z,1.35
2019-05-01T10:22:37.493Z,1.87
2019-05-01T10:25:08.596Z,1.80
2019-05-01T10:27:39.676Z,1.50
2019-05-01T10:30:18.603Z,1.72
2019-05-01T10:32:52.851Z,1.32
2019-05-01T10:35:44.612Z,1.90
2019-05-01T10:38:14.021Z,2.40
2019-05-01T10:40:43.355Z,2.20
2019-05-01T10:43:13.091Z,2.95
2019-05-01T10:45:42.470Z,5.10
2019-05-01T10:48:11.860Z,1.92
2019-05-01T10:50:41.182Z,1.30
2019-05-01T10:53:10.557Z,1.47
2019-05-01T10:55:39.993Z,1.98
2019-05-01T10:58:12.902Z,1.67
2019-05-01T11:00:42.294Z,1.50
2019-05-01T11:03:11.850Z,1.87
2019-05-01T11:05:41.231Z,1.70
2019-05-01T11:08:17.182Z,1.60
2019-05-01T11:10:48.342Z,1.40
2019-05-01T11:13:22.734Z,1.57
2019-05-01T11:15:58.546Z,1.30
2019-05-01T11:18:39.615Z,1.30
2019-05-01T11:21:11.264Z,1.60
2019-05-01T11:23:40.651Z,1.60
2019-05-01T11:26:11.221Z,1.57
2019-05-01T11:28:40.477Z,1.35
2019-05-01T11:31:11.781Z,1.47
2019-05-01T11:34:05.901Z,1.57
2019-05-01T11:37:00.266Z,1.50
2019-05-01T11:39:35.891Z,2.08
2019-05-01T11:42:07.280Z,1.72
2019-05-01T11:44:36.625Z,1.60
2019-05-01T11:47:06.514Z,1.60
2019-05-01T11:49:35.855Z,1.40
2019-05-01T11:52:05.205Z,1.77
2019-05-01T11:54:34.645Z,1.47
2019-05-01T11:57:04.317Z,1.47
2019-05-01T11:59:34.090Z,2.12
2019-05-01T12:02:03.438Z,2.47
2019-05-01T12:04:32.758Z,1.98
2019-05-01T12:07:02.109Z,1.42
2019-05-01T12:09:31.461Z,1.40
2019-05-01T12:12:04.323Z,1.40
2019-05-01T12:14:33.674Z,1.50
2019-05-01T12:17:09.305Z,1.30
2019-05-01T12:19:38.619Z,1.93
2019-05-01T12:22:08.068Z,1.57
2019-05-01T12:24:40.324Z,1.40
2019-05-01T12:27:10.031Z,1.50
2019-05-01T12:29:39.482Z,1.80
2019-05-01T12:32:08.809Z,1.70
2019-05-01T12:34:38.513Z,1.70
2019-05-01T12:37:25.766Z,2.10
2019-05-01T12:39:55.156Z,1.60
2019-05-01T12:42:37.406Z,1.77
2019-05-01T12:45:08.662Z,1.60
2019-05-01T12:48:00.212Z,1.80
2019-05-01T12:50:29.555Z,1.60
2019-05-01T12:53:14.436Z,1.60
2019-05-01T12:56:05.801Z,1.70
2019-05-01T12:58:37.029Z,1.80
2019-05-01T13:01:06.493Z,2.00
2019-05-01T13:03:38.014Z,1.63
2019-05-01T13:06:07.480Z,1.97
2019-05-01T13:08:36.881Z,1.70
2019-05-01T13:11:06.274Z,1.80
2019-05-01T13:13:35.678Z,1.80
2019-05-01T13:16:05.042Z,2.23
2019-05-01T13:18:34.811Z,2.00
2019-05-01T13:21:05.119Z,2.43
2019-05-01T13:23:34.993Z,2.10
2019-05-01T13:26:17.727Z,2.00
2019-05-01T13:28:58.305Z,1.80
2019-05-01T13:31:52.465Z,1.60
2019-05-01T13:34:22.119Z,1.80
2019-05-01T13:37:02.309Z,2.33
2019-05-01T13:39:23.405Z,2.47
2019-05-01T13:41:53.066Z,1.50
2019-05-01T13:44:22.491Z,1.80
2019-05-01T13:46:52.346Z,1.83
2019-05-01T13:49:21.720Z,2.17
2019-05-01T13:51:56.644Z,1.77
2019-05-01T13:54:26.137Z,1.43
2019-05-01T13:56:55.491Z,1.80
2019-05-01T13:59:24.857Z,1.50
2019-05-01T14:01:54.539Z,1.53
2019-05-01T14:04:24.658Z,1.80
2019-05-01T14:06:54.362Z,1.77
2019-05-01T14:09:32.390Z,1.80
2019-05-01T14:12:01.729Z,1.60
2019-05-01T14:14:31.076Z,1.60
2019-05-01T14:17:00.458Z,1.43
2019-05-01T14:19:31.611Z,1.90
2019-05-01T14:22:13.746Z,1.80
2019-05-01T14:24:47.441Z,2.00
2019-05-01T14:27:17.859Z,1.50
2019-05-01T14:29:47.250Z,1.53
2019-05-01T14:32:23.006Z,1.40
2019-05-01T14:34:52.615Z,1.57
2019-05-01T14:37:29.581Z,1.77
2019-05-01T14:39:54.622Z,1.37
2019-05-01T14:42:28.266Z,1.50
2019-05-01T14:44:57.800Z,1.10
2019-05-01T14:47:27.362Z,1.30
2019-05-01T14:49:56.698Z,1.37
2019-05-01T14:52:26.793Z,1.20
2019-05-01T14:54:57.004Z,1.40
2019-05-01T14:57:28.729Z,1.47
2019-05-01T14:59:59.569Z,1.40
2019-05-01T15:02:28.917Z,2.33
2019-05-01T15:04:58.277Z,1.90
2019-05-01T15:07:27.619Z,1.67
2019-05-01T15:09:56.974Z,3.50
2019-05-01T15:12:26.309Z,1.63
2019-05-01T15:15:20.718Z,1.93
2019-05-01T15:18:04.059Z,1.50
2019-05-01T15:20:33.381Z,1.50
2019-05-01T15:23:04.509Z,1.90
2019-05-01T15:25:33.864Z,1.60
2019-05-01T15:28:03.201Z,1.40
2019-05-01T15:30:32.571Z,1.40
2019-05-01T15:33:01.936Z,1.50
2019-05-01T15:35:31.304Z,1.30
2019-05-01T15:38:00.650Z,1.70
2019-05-01T15:40:38.800Z,1.80
2019-05-01T15:43:26.116Z,1.40
2019-05-01T15:45:55.656Z,1.50
2019-05-01T15:48:25.007Z,1.87
2019-05-01T15:50:54.371Z,1.77
2019-05-01T15:53:24.131Z,2.00
2019-05-01T15:55:53.482Z,1.93
2019-05-01T15:58:22.845Z,1.80
2019-05-01T16:00:52.200Z,1.67
2019-05-01T16:03:21.526Z,1.53
2019-05-01T16:05:50.882Z,1.67
2019-05-01T16:08:20.231Z,7.63
2019-05-01T16:11:05.627Z,1.90
2019-05-01T16:13:35.490Z,1.67
2019-05-01T16:16:04.868Z,1.80
2019-05-01T16:18:34.225Z,1.77
2019-05-01T16:21:03.639Z,1.67
2019-05-01T16:23:33.001Z,1.43
2019-05-01T16:26:02.420Z,1.70
2019-05-01T16:28:44.569Z,1.50
2019-05-01T16:31:14.099Z,1.83
2019-05-01T16:33:43.548Z,1.50
2019-05-01T16:36:12.890Z,1.33
2019-05-01T16:39:11.304Z,1.73
2019-05-01T16:41:42.222Z,1.80
2019-05-01T16:44:13.613Z,1.40
2019-05-01T16:46:42.938Z,1.50
2019-05-01T16:49:12.389Z,1.50
2019-05-01T16:51:41.848Z,1.40
2019-05-01T16:54:11.232Z,1.80
2019-05-01T16:56:47.507Z,1.50
2019-05-01T16:59:30.741Z,1.80
2019-05-01T17:02:07.644Z,2.20
2019-05-01T17:04:43.071Z,1.90
2019-05-01T17:07:37.261Z,2.00
2019-05-01T17:10:34.724Z,2.00
2019-05-01T17:13:06.054Z,2.10
2019-05-01T17:15:40.950Z,2.23
2019-05-01T17:18:10.609Z,2.50
2019-05-01T17:20:40.104Z,4.70
2019-05-01T17:23:09.425Z,2.70
2019-05-01T17:25:38.912Z,2.63
2019-05-01T17:28:16.129Z,2.20
2019-05-01T17:31:00.223Z,2.57
2019-05-01T17:33:31.559Z,2.73
2019-05-01T17:36:04.328Z,2.97
2019-05-01T17:38:49.233Z,2.77
2019-05-01T17:41:27.094Z,2.60
2019-05-01T17:43:56.887Z,4.90
2019-05-01T17:46:41.884Z,5.70
2019-05-01T17:49:13.323Z,5.90
2019-05-01T17:51:46.316Z,2.50
2019-05-01T17:54:13.912Z,2.80
2019-05-01T17:56:48.499Z,2.60
2019-05-01T17:59:17.735Z,2.50
2019-05-01T18:01:58.168Z,2.50
2019-05-01T18:04:42.395Z,2.70
2019-05-01T18:07:11.836Z,2.70
2019-05-01T18:09:41.192Z,2.60
2019-05-01T18:12:10.576Z,2.80
2019-05-01T18:14:39.900Z,2.90
2019-05-01T18:17:09.579Z,2.90
2019-05-01T18:19:39.044Z,2.90
2019-05-01T18:22:16.208Z,3.03
2019-05-01T18:25:03.530Z,2.83
2019-05-01T18:28:01.008Z,2.97
2019-05-01T18:30:35.501Z,2.80
2019-05-01T18:33:05.064Z,2.77
2019-05-01T18:35:34.471Z,3.60
2019-05-01T18:38:35.177Z,3.23
2019-05-01T18:41:18.657Z,3.23
2019-05-01T18:43:47.954Z,3.13
2019-05-01T18:46:17.481Z,3.60
2019-05-01T18:48:46.943Z,3.80
2019-05-01T18:51:16.555Z,3.80
2019-05-01T18:53:45.915Z,3.40
2019-05-01T18:56:15.314Z,3.90
2019-05-01T18:58:44.653Z,3.70
2019-05-01T19:01:13.969Z,3.70
2019-05-01T19:03:44.190Z,4.10
2019-05-01T19:06:15.646Z,4.07
2019-05-01T19:08:44.851Z,4.10
2019-05-01T19:11:14.494Z,4.20
2019-05-01T19:13:43.991Z,4.87
2019-05-01T19:16:13.449Z,3.87
2019-05-01T19:18:42.811Z,4.10
2019-05-01T19:21:13.738Z,4.13
2019-05-01T19:23:43.174Z,9.13
2019-05-01T19:26:13.194Z,4.77
2019-05-01T19:28:42.586Z,4.57
2019-05-01T19:31:11.990Z,4.83
2019-05-01T19:33:41.914Z,4.60
2019-05-01T19:36:11.480Z,4.27
2019-05-01T19:38:40.829Z,4.40
2019-05-01T19:41:14.097Z,4.30
2019-05-01T19:43:42.158Z,3.97
2019-05-01T19:46:11.824Z,4.40
2019-05-01T19:48:45.455Z,3.90
2019-05-01T19:51:12.338Z,4.13
2019-05-01T19:53:51.902Z,4.40
2019-05-01T19:56:21.550Z,4.37
2019-05-01T19:58:52.221Z,4.63
2019-05-01T20:01:23.023Z,4.20
2019-05-01T20:03:52.380Z,4.30
2019-05-01T20:06:21.701Z,4.33
2019-05-01T20:08:54.251Z,4.63
2019-05-01T20:11:23.655Z,5.83
2019-05-01T20:13:53.109Z,4.10
2019-05-01T20:16:23.158Z,4.20
2019-05-01T20:18:52.460Z,4.27
2019-05-01T20:21:21.909Z,3.90
2019-05-01T20:23:51.235Z,4.43
2019-05-01T20:26:20.585Z,3.87
2019-05-01T20:28:49.893Z,3.73
2019-05-01T20:31:20.910Z,4.57
2019-05-01T20:33:50.577Z,3.90
2019-05-01T20:36:19.912Z,3.57
2019-05-01T20:38:49.391Z,4.10
2019-05-01T20:41:18.725Z,3.50
2019-05-01T20:43:48.079Z,4.30
2019-05-01T20:46:21.531Z,4.60
2019-05-01T20:48:48.468Z,4.57
2019-05-01T20:51:20.114Z,5.07
2019-05-01T20:53:48.876Z,4.60
2019-05-01T20:56:27.210Z,4.90
2019-05-01T20:58:57.744Z,5.10
2019-05-01T21:01:29.544Z,5.40
2019-05-01T21:04:24.601Z,5.20
2019-05-01T21:07:15.656Z,5.63
2019-05-01T21:09:47.647Z,5.50
2019-05-01T21:12:15.653Z,6.03
2019-05-01T21:14:49.734Z,6.97
2019-05-01T21:17:17.176Z,6.93
2019-05-01T21:19:46.522Z,7.27
2019-05-01T21:22:15.859Z,7.00
2019-05-01T21:24:45.208Z,7.80
2019-05-01T21:27:14.779Z,7.80
2019-05-01T21:29:44.610Z,7.80
2019-05-01T21:32:18.240Z,8.10
2019-05-01T21:34:45.269Z,7.80
2019-05-01T21:37:14.630Z,9.00
2019-05-01T21:39:44.018Z,9.13
2019-05-01T21:42:16.069Z,9.97
2019-05-01T21:44:44.441Z,9.47
2019-05-01T21:47:14.053Z,9.53
2019-05-01T21:49:43.568Z,10.13
2019-05-01T21:52:13.611Z,8.90
2019-05-01T21:54:43.080Z,8.50
2019-05-01T21:57:17.426Z,9.30
2019-05-01T21:59:44.890Z,9.57
2019-05-01T22:02:14.745Z,9.30
2019-05-01T22:04:44.114Z,9.63
2019-05-01T22:07:13.450Z,9.67
2019-05-01T22:09:45.707Z,9.17
2019-05-01T22:12:14.469Z,8.00
2019-05-01T22:14:57.099Z,8.60
2019-05-01T22:17:56.233Z,9.33
2019-05-01T22:20:32.581Z,8.60
2019-05-01T22:23:04.350Z,8.93
2019-05-01T22:25:40.477Z,9.50
2019-05-01T22:28:18.836Z,8.60
2019-05-01T22:31:05.284Z,8.77
2019-05-01T22:33:35.792Z,8.20
2019-05-01T22:36:05.400Z,8.20
2019-05-01T22:38:34.753Z,7.90
2019-05-01T22:41:08.967Z,7.93
2019-05-01T22:43:38.430Z,8.10
2019-05-01T22:46:10.357Z,8.10
2019-05-01T22:48:39.724Z,7.93
2019-05-01T22:51:28.073Z,7.70
2019-05-01T22:53:57.389Z,7.10
2019-05-01T22:56:26.852Z,7.10
2019-05-01T22:58:56.242Z,7.17
2019-05-01T23:01:26.496Z,7.97
2019-05-01T23:04:01.329Z,7.47
2019-05-01T23:06:30.681Z,7.23
2019-05-01T23:09:00.109Z,7.40
2019-05-01T23:11:31.648Z,7.30
2019-05-01T23:14:01.067Z,6.73
2019-05-01T23:16:34.422Z,8.07
2019-05-01T23:19:03.754Z,7.10
2019-05-01T23:21:33.090Z,6.87
2019-05-01T23:24:03.556Z,7.13
2019-05-01T23:26:32.939Z,7.23
2019-05-01T23:29:02.295Z,6.47
2019-05-01T23:31:31.666Z,6.80
2019-05-01T23:34:01.007Z,6.70
2019-05-01T23:36:30.333Z,7.77
2019-05-01T23:38:59.666Z,7.40
2019-05-01T23:41:45.351Z,6.90
2019-05-01T23:44:03.442Z,6.83
2019-05-01T23:46:31.157Z,6.20
2019-05-01T23:49:00.473Z,6.10
2019-05-01T23:51:30.014Z,6.40
2019-05-01T23:53:59.340Z,6.70
2019-05-01T23:56:30.990Z,7.23
2019-05-01T23:58:59.837Z,6.23
